Terminal Aerodrome Forecast
Issued by NWS Cleveland, OH

Home | Current Version | Previous Version | Graphics & Text | Print | Product List | Glossary On
Versions: 1 2 3 4 5 6 7 8 9 10 11 12 13 14 15 16
000
FTUS41 KCLE 082200 AAB
TAFERI
TAF AMD
KERI 082227Z 0822/0918 25015G25KT P6SM VCSH SCT020 OVC040
      TEMPO 0823/0824 3SM -SHRA OVC020
     FM090000 25010KT P6SM SCT025 OVC035
     FM091200 28010KT P6SM VCSH BKN030 OVC040=

USA.gov is the U.S. government's official web portal to all federal, state and local government web resources and services.